createdAt,value
2022-10-27T00:03:57.781Z,101246.03
2022-10-27T00:10:45.181Z,101249.53
2022-10-27T00:17:34.623Z,101245.78
2022-10-27T00:24:20.062Z,101259.19
2022-10-27T00:31:09.789Z,101275.66
2022-10-27T00:37:57.743Z,101282.72
2022-10-27T00:44:45.409Z,101292.84
2022-10-27T00:51:30.990Z,101283.38
2022-10-27T00:58:22.420Z,101280.44
2022-10-27T01:05:14.669Z,101260.50
2022-10-27T01:12:00.050Z,101274.91
2022-10-27T01:19:01.511Z,101272.13
2022-10-27T01:26:47.025Z,101273.28
2022-10-27T01:33:43.675Z,101280.41
2022-10-27T01:40:35.275Z,101286.44
2022-10-27T01:47:20.899Z,101274.69
2022-10-27T01:54:09.879Z,101279.91
2022-10-27T02:08:43.883Z,101294.06
2022-10-27T02:15:40.709Z,101206.00
2022-10-27T02:22:29.530Z,101270.25
2022-10-27T02:29:20.116Z,101281.34
2022-10-27T02:36:09.101Z,101265.84
2022-10-27T02:42:54.652Z,101279.91
2022-10-27T03:03:30.737Z,101210.53
2022-10-27T03:10:16.173Z,101236.22
2022-10-27T03:17:02.013Z,101280.28
2022-10-27T03:23:49.981Z,101254.31
2022-10-27T03:30:35.376Z,101271.47
2022-10-27T03:37:20.764Z,101270.13
2022-10-27T03:44:08.896Z,101259.19
2022-10-27T03:50:54.786Z,101255.72
2022-10-27T03:57:40.146Z,101265.16
2022-10-27T04:04:28.102Z,101259.94
2022-10-27T04:11:13.481Z,101270.53
2022-10-27T04:18:00.973Z,101271.47
2022-10-27T04:24:48.900Z,101268.34
2022-10-27T04:31:34.233Z,101271.75
2022-10-27T04:38:19.625Z,101293.16
2022-10-27T04:45:08.712Z,101277.59
2022-10-27T04:51:54.062Z,101270.38
2022-10-27T04:58:39.485Z,101277.53
2022-10-27T05:05:30.186Z,101257.78
2022-10-27T05:12:15.533Z,101278.47
2022-10-27T05:19:00.909Z,101263.00
2022-10-27T05:25:53.847Z,101262.63
2022-10-27T05:32:43.303Z,101266.28
2022-10-27T05:39:32.671Z,101256.59
2022-10-27T05:46:20.610Z,101260.44
2022-10-27T05:53:06.680Z,101257.72
2022-10-27T05:59:52.013Z,101246.09
2022-10-27T06:06:39.941Z,101238.09
2022-10-27T06:13:25.279Z,101235.75
2022-10-27T06:20:12.403Z,101246.13
2022-10-27T06:27:00.358Z,101262.47
2022-10-27T06:33:45.954Z,101265.88
2022-10-27T06:40:31.433Z,101281.16
2022-10-27T06:47:19.434Z,101280.38
2022-10-27T06:54:04.840Z,101292.47
2022-10-27T07:00:50.180Z,101304.00
2022-10-27T07:07:38.932Z,101305.38
2022-10-27T07:14:24.307Z,101313.56
2022-10-27T07:21:09.944Z,101306.34
2022-10-27T07:27:58.565Z,101301.97
2022-10-27T07:34:44.040Z,101307.19
2022-10-27T07:41:29.388Z,101324.91
2022-10-27T07:48:19.056Z,101333.59
2022-10-27T07:55:04.375Z,101346.31
2022-10-27T08:01:49.863Z,101345.16
2022-10-27T08:08:37.803Z,101336.69
2022-10-27T08:15:23.399Z,101340.53
2022-10-27T08:22:13.053Z,101333.19
2022-10-27T08:29:02.075Z,101346.09
2022-10-27T08:35:47.447Z,101339.63
2022-10-27T08:42:44.803Z,101333.31
2022-10-27T08:49:43.452Z,101331.97
2022-10-27T08:56:41.571Z,101339.50
2022-10-27T09:03:47.739Z,101312.47
2022-10-27T09:10:46.112Z,101353.41
2022-10-27T09:17:35.397Z,101327.53
2022-10-27T09:24:26.616Z,101322.28
2022-10-27T09:31:20.321Z,101346.13
2022-10-27T09:38:05.768Z,101349.13
2022-10-27T09:44:59.322Z,101338.00
2022-10-27T09:51:53.185Z,101354.31
2022-10-27T09:58:51.882Z,101331.97
2022-10-27T10:05:40.328Z,101328.28
2022-10-27T10:12:29.458Z,101332.66
2022-10-27T10:19:21.048Z,101331.84
2022-10-27T10:26:20.551Z,101327.28
2022-10-27T10:33:10.354Z,101320.06
2022-10-27T10:39:55.718Z,101340.50
2022-10-27T10:46:44.987Z,101317.78
2022-10-27T10:53:38.612Z,101305.13
2022-10-27T11:00:25.420Z,101277.81
2022-10-27T11:07:23.888Z,101304.59
2022-10-27T11:14:18.849Z,101305.47
2022-10-27T11:21:13.180Z,101280.03
2022-10-27T11:28:05.833Z,101274.84
2022-10-27T11:35:07.527Z,101257.56
2022-10-27T11:42:01.172Z,101254.34
2022-10-27T11:48:54.466Z,101236.84
2022-10-27T11:56:04.183Z,101231.44
2022-10-27T12:10:46.661Z,101212.00
2022-10-27T12:17:39.887Z,101218.44
2022-10-27T12:24:33.488Z,101200.38
2022-10-27T12:31:27.865Z,101125.00
2022-10-27T12:38:21.375Z,101210.50
2022-10-27T12:45:35.251Z,101209.38
2022-10-27T12:52:26.034Z,101192.75
2022-10-27T12:59:26.854Z,101183.03
2022-10-27T13:06:33.343Z,101171.28
2022-10-27T13:13:49.143Z,101174.31
2022-10-27T13:20:58.187Z,101155.84
2022-10-27T13:27:50.985Z,101172.94
2022-10-27T13:34:39.280Z,101149.41
2022-10-27T13:41:53.208Z,101145.50
2022-10-27T13:48:38.602Z,101146.31
2022-10-27T13:55:39.870Z,101141.63
2022-10-27T14:02:37.543Z,101143.22
2022-10-27T14:09:32.897Z,101146.00
2022-10-27T14:16:26.876Z,101127.94
2022-10-27T14:23:16.793Z,101126.34
2022-10-27T14:30:20.596Z,101120.47
2022-10-27T14:37:12.993Z,101117.66
2022-10-27T14:44:02.714Z,101110.72
2022-10-27T14:50:48.768Z,101111.16
2022-10-27T14:57:39.506Z,101103.78
2022-10-27T15:04:27.322Z,101062.81
2022-10-27T15:11:19.881Z,101122.53
2022-10-27T15:25:24.707Z,101120.22
2022-10-27T15:32:22.270Z,101114.69
2022-10-27T15:39:20.496Z,101101.97
2022-10-27T15:46:17.630Z,101097.47
2022-10-27T15:53:17.201Z,101094.50
2022-10-27T16:00:25.323Z,101043.63
2022-10-27T16:07:33.905Z,101096.91
2022-10-27T16:14:19.625Z,101101.09
2022-10-27T16:21:07.949Z,101082.81
2022-10-27T16:27:53.633Z,101104.53
2022-10-27T16:34:38.987Z,101107.47
2022-10-27T16:41:31.512Z,101089.59
2022-10-27T16:48:17.697Z,101092.66
2022-10-27T16:55:06.040Z,101132.19
2022-10-27T17:01:54.142Z,101128.41
2022-10-27T17:08:40.988Z,101123.41
2022-10-27T17:15:26.334Z,101130.06
2022-10-27T17:22:14.296Z,101125.03
2022-10-27T17:28:59.919Z,101133.41
2022-10-27T17:35:45.253Z,101111.22
2022-10-27T17:42:33.558Z,101119.25
2022-10-27T17:49:18.992Z,101141.59
2022-10-27T17:56:06.517Z,101154.97
2022-10-27T18:02:57.689Z,101133.56
2022-10-27T18:09:45.150Z,101155.56
2022-10-27T18:16:34.286Z,101159.66
2022-10-27T18:23:22.404Z,101142.44
2022-10-27T18:30:09.739Z,101165.44
2022-10-27T18:36:55.109Z,101152.56
2022-10-27T18:43:45.452Z,101150.72
2022-10-27T18:50:30.922Z,101143.84
2022-10-27T18:57:16.668Z,101140.25
2022-10-27T19:04:08.377Z,101147.44
2022-10-27T19:10:55.891Z,101163.38
2022-10-27T19:17:44.589Z,101140.25
2022-10-27T19:24:32.898Z,101144.91
2022-10-27T19:31:21.664Z,101133.19
2022-10-27T19:38:07.138Z,101157.22
2022-10-27T19:44:55.583Z,101135.50
2022-10-27T19:51:42.257Z,101117.25
2022-10-27T19:58:27.642Z,101138.53
2022-10-27T20:05:15.601Z,101142.81
2022-10-27T20:12:02.566Z,101128.28
2022-10-27T20:18:48.690Z,101138.06
2022-10-27T20:25:37.088Z,101152.22
2022-10-27T20:32:22.500Z,101102.34
2022-10-27T20:39:09.579Z,101159.06
2022-10-27T20:46:00.541Z,101155.69
2022-10-27T20:52:46.421Z,101145.56
2022-10-27T20:59:31.769Z,101131.84
2022-10-27T21:06:19.716Z,101147.75
2022-10-27T21:13:05.136Z,101144.38
2022-10-27T21:19:50.516Z,101161.22
2022-10-27T21:26:38.732Z,101134.50
2022-10-27T21:33:24.077Z,101140.44
2022-10-27T21:40:12.218Z,101139.94
2022-10-27T21:47:00.199Z,101153.16
2022-10-27T21:53:46.285Z,101141.91
2022-10-27T22:00:31.744Z,101143.28
2022-10-27T22:07:19.801Z,101144.63
2022-10-27T22:14:05.694Z,101154.81
2022-10-27T22:20:51.093Z,101147.50
2022-10-27T22:27:39.114Z,101151.19
2022-10-27T22:34:24.460Z,101151.59
2022-10-27T22:41:12.908Z,101124.03
2022-10-27T22:48:01.543Z,101117.25
2022-10-27T22:54:46.918Z,101115.97
2022-10-27T23:01:34.974Z,101120.09
2022-10-27T23:08:23.025Z,101124.19
2022-10-27T23:15:09.918Z,101136.13
2022-10-27T23:21:55.288Z,101146.75
2022-10-27T23:28:43.233Z,101149.09
2022-10-27T23:35:28.661Z,101122.63
2022-10-27T23:42:14.009Z,101132.72
2022-10-27T23:49:02.426Z,101104.38
2022-10-27T23:55:47.853Z,101113.06
